sensor_id;sensor_type;location;lat;lon;timestamp;temperature;humidity
69747;DHT22;57018;50.278;19.134;2023-08-06T00:00:17;19.00;99.90
69747;DHT22;57018;50.278;19.134;2023-08-06T00:02:47;19.00;99.90
69747;DHT22;57018;50.278;19.134;2023-08-06T00:05:17;19.00;99.90
69747;DHT22;57018;50.278;19.134;2023-08-06T00:07:49;19.00;99.90
69747;DHT22;57018;50.278;19.134;2023-08-06T00:10:19;19.00;99.90
69747;DHT22;57018;50.278;19.134;2023-08-06T00:12:49;18.90;99.90
69747;DHT22;57018;50.278;19.134;2023-08-06T00:15:19;19.00;99.90
69747;DHT22;57018;50.278;19.134;2023-08-06T00:17:49;19.00;99.90
69747;DHT22;57018;50.278;19.134;2023-08-06T00:20:19;19.00;99.90
69747;DHT22;57018;50.278;19.134;2023-08-06T00:22:49;19.00;99.90
69747;DHT22;57018;50.278;19.134;2023-08-06T00:25:19;19.10;99.90
69747;DHT22;57018;50.278;19.134;2023-08-06T00:27:49;19.00;99.90
69747;DHT22;57018;50.278;19.134;2023-08-06T00:30:19;19.10;99.90
69747;DHT22;57018;50.278;19.134;2023-08-06T00:32:48;19.00;99.90
69747;DHT22;57018;50.278;19.134;2023-08-06T00:35:18;19.00;99.90
69747;DHT22;57018;50.278;19.134;2023-08-06T00:37:48;19.00;99.90
69747;DHT22;57018;50.278;19.134;2023-08-06T00:40:24;19.00;99.90
69747;DHT22;57018;50.278;19.134;2023-08-06T00:42:59;18.90;99.90
69747;DHT22;57018;50.278;19.134;2023-08-06T00:45:29;19.10;99.90
69747;DHT22;57018;50.278;19.134;2023-08-06T00:48:03;19.00;99.90
69747;DHT22;57018;50.278;19.134;2023-08-06T00:50:34;19.00;99.90
69747;DHT22;57018;50.278;19.134;2023-08-06T00:53:04;19.00;99.90
69747;DHT22;57018;50.278;19.134;2023-08-06T00:55:34;19.00;99.90
69747;DHT22;57018;50.278;19.134;2023-08-06T00:58:05;19.00;99.90
69747;DHT22;57018;50.278;19.134;2023-08-06T01:00:35;19.00;99.90
69747;DHT22;57018;50.278;19.134;2023-08-06T01:03:05;18.90;99.90
69747;DHT22;57018;50.278;19.134;2023-08-06T01:05:35;18.90;99.90
69747;DHT22;57018;50.278;19.134;2023-08-06T01:08:15;18.80;99.90
69747;DHT22;57018;50.278;19.134;2023-08-06T01:10:56;18.90;99.90
69747;DHT22;57018;50.278;19.134;2023-08-06T01:13:36;18.90;99.90
69747;DHT22;57018;50.278;19.134;2023-08-06T01:16:08;19.00;99.90
69747;DHT22;57018;50.278;19.134;2023-08-06T01:18:38;18.90;99.90
69747;DHT22;57018;50.278;19.134;2023-08-06T01:21:10;18.90;99.90
69747;DHT22;57018;50.278;19.134;2023-08-06T01:23:40;19.00;99.90
69747;DHT22;57018;50.278;19.134;2023-08-06T01:26:18;19.10;99.90
69747;DHT22;57018;50.278;19.134;2023-08-06T01:29:02;19.10;99.90
69747;DHT22;57018;50.278;19.134;2023-08-06T01:31:37;19.00;99.90
69747;DHT22;57018;50.278;19.134;2023-08-06T01:34:13;18.90;99.90
69747;DHT22;57018;50.278;19.134;2023-08-06T01:36:46;19.00;99.90
69747;DHT22;57018;50.278;19.134;2023-08-06T01:39:16;19.00;99.90
69747;DHT22;57018;50.278;19.134;2023-08-06T01:41:50;19.00;99.90
69747;DHT22;57018;50.278;19.134;2023-08-06T01:44:20;19.00;99.90
69747;DHT22;57018;50.278;19.134;2023-08-06T01:46:50;19.10;99.90
69747;DHT22;57018;50.278;19.134;2023-08-06T01:49:19;19.00;99.90
69747;DHT22;57018;50.278;19.134;2023-08-06T01:51:49;19.10;99.90
69747;DHT22;57018;50.278;19.134;2023-08-06T01:54:19;19.00;99.90
69747;DHT22;57018;50.278;19.134;2023-08-06T01:56:49;19.10;99.90
69747;DHT22;57018;50.278;19.134;2023-08-06T01:59:19;19.10;99.90
69747;DHT22;57018;50.278;19.134;2023-08-06T02:01:48;19.10;99.90
69747;DHT22;57018;50.278;19.134;2023-08-06T02:04:18;19.10;99.90
69747;DHT22;57018;50.278;19.134;2023-08-06T02:06:48;19.10;99.90
69747;DHT22;57018;50.278;19.134;2023-08-06T02:09:18;19.20;99.90
69747;DHT22;57018;50.278;19.134;2023-08-06T02:11:48;19.10;99.90
69747;DHT22;57018;50.278;19.134;2023-08-06T02:14:17;19.10;99.90
69747;DHT22;57018;50.278;19.134;2023-08-06T02:16:47;18.90;99.90
69747;DHT22;57018;50.278;19.134;2023-08-06T02:19:18;19.00;99.90
69747;DHT22;57018;50.278;19.134;2023-08-06T02:21:54;18.90;99.90
69747;DHT22;57018;50.278;19.134;2023-08-06T02:24:23;18.90;99.90
69747;DHT22;57018;50.278;19.134;2023-08-06T02:26:53;19.00;99.90
69747;DHT22;57018;50.278;19.134;2023-08-06T02:29:24;19.00;99.90
69747;DHT22;57018;50.278;19.134;2023-08-06T02:31:54;19.00;99.90
69747;DHT22;57018;50.278;19.134;2023-08-06T02:34:24;19.00;99.90
69747;DHT22;57018;50.278;19.134;2023-08-06T02:36:54;19.10;99.90
69747;DHT22;57018;50.278;19.134;2023-08-06T02:39:24;19.10;99.90
69747;DHT22;57018;50.278;19.134;2023-08-06T02:41:54;19.10;99.90
69747;DHT22;57018;50.278;19.134;2023-08-06T02:44:26;19.10;99.90
69747;DHT22;57018;50.278;19.134;2023-08-06T02:46:56;19.10;99.90
69747;DHT22;57018;50.278;19.134;2023-08-06T02:49:26;19.30;99.90
69747;DHT22;57018;50.278;19.134;2023-08-06T02:51:56;19.30;99.90
69747;DHT22;57018;50.278;19.134;2023-08-06T02:54:25;19.30;99.90
69747;DHT22;57018;50.278;19.134;2023-08-06T02:56:55;19.30;99.90
69747;DHT22;57018;50.278;19.134;2023-08-06T02:59:25;19.30;99.90
69747;DHT22;57018;50.278;19.134;2023-08-06T03:01:55;19.30;99.90
69747;DHT22;57018;50.278;19.134;2023-08-06T03:04:25;19.30;99.90
69747;DHT22;57018;50.278;19.134;2023-08-06T03:06:55;19.30;99.90
69747;DHT22;57018;50.278;19.134;2023-08-06T03:09:24;19.30;99.90
69747;DHT22;57018;50.278;19.134;2023-08-06T03:11:53;19.40;99.90
69747;DHT22;57018;50.278;19.134;2023-08-06T03:14:22;19.50;99.90
69747;DHT22;57018;50.278;19.134;2023-08-06T03:16:52;19.40;99.90
69747;DHT22;57018;50.278;19.134;2023-08-06T03:19:22;19.50;99.90
69747;DHT22;57018;50.278;19.134;2023-08-06T03:21:52;19.40;99.90
69747;DHT22;57018;50.278;19.134;2023-08-06T03:24:22;19.50;99.90
69747;DHT22;57018;50.278;19.134;2023-08-06T03:26:52;19.50;99.90
69747;DHT22;57018;50.278;19.134;2023-08-06T03:29:22;19.50;99.90
69747;DHT22;57018;50.278;19.134;2023-08-06T03:31:53;19.50;99.90
69747;DHT22;57018;50.278;19.134;2023-08-06T03:34:23;19.50;99.90
69747;DHT22;57018;50.278;19.134;2023-08-06T03:36:53;19.60;99.90
69747;DHT22;57018;50.278;19.134;2023-08-06T03:39:22;19.60;99.90
69747;DHT22;57018;50.278;19.134;2023-08-06T03:41:52;19.70;99.90
69747;DHT22;57018;50.278;19.134;2023-08-06T03:44:22;19.70;99.90
69747;DHT22;57018;50.278;19.134;2023-08-06T03:46:52;19.60;99.90
69747;DHT22;57018;50.278;19.134;2023-08-06T03:49:22;19.70;99.90
69747;DHT22;57018;50.278;19.134;2023-08-06T03:51:52;19.60;99.90
69747;DHT22;57018;50.278;19.134;2023-08-06T03:54:20;19.70;99.90
69747;DHT22;57018;50.278;19.134;2023-08-06T03:56:50;19.60;99.90
69747;DHT22;57018;50.278;19.134;2023-08-06T03:59:22;19.70;99.90
69747;DHT22;57018;50.278;19.134;2023-08-06T04:01:52;19.80;99.90
69747;DHT22;57018;50.278;19.134;2023-08-06T04:04:22;19.90;99.90
69747;DHT22;57018;50.278;19.134;2023-08-06T04:06:52;19.80;99.90
69747;DHT22;57018;50.278;19.134;2023-08-06T04:09:21;19.80;99.90
69747;DHT22;57018;50.278;19.134;2023-08-06T04:11:51;19.90;99.90
69747;DHT22;57018;50.278;19.134;2023-08-06T04:14:21;19.90;99.90
69747;DHT22;57018;50.278;19.134;2023-08-06T04:16:51;19.90;99.90
69747;DHT22;57018;50.278;19.134;2023-08-06T04:19:21;19.90;99.90
69747;DHT22;57018;50.278;19.134;2023-08-06T04:21:50;20.00;99.90
69747;DHT22;57018;50.278;19.134;2023-08-06T04:24:20;20.00;99.90
69747;DHT22;57018;50.278;19.134;2023-08-06T04:26:50;20.00;99.90
69747;DHT22;57018;50.278;19.134;2023-08-06T04:29:20;20.00;99.90
69747;DHT22;57018;50.278;19.134;2023-08-06T04:31:50;19.90;99.90
69747;DHT22;57018;50.278;19.134;2023-08-06T04:34:19;20.10;99.90
69747;DHT22;57018;50.278;19.134;2023-08-06T04:36:49;20.00;99.90
69747;DHT22;57018;50.278;19.134;2023-08-06T04:39:19;20.00;99.90
69747;DHT22;57018;50.278;19.134;2023-08-06T04:41:49;20.10;99.90
69747;DHT22;57018;50.278;19.134;2023-08-06T04:44:20;20.00;99.90
69747;DHT22;57018;50.278;19.134;2023-08-06T04:46:50;20.10;99.90
69747;DHT22;57018;50.278;19.134;2023-08-06T04:49:21;20.10;99.90
69747;DHT22;57018;50.278;19.134;2023-08-06T04:51:51;20.10;99.90
69747;DHT22;57018;50.278;19.134;2023-08-06T04:54:21;20.20;99.90
69747;DHT22;57018;50.278;19.134;2023-08-06T04:56:51;20.30;99.90
69747;DHT22;57018;50.278;19.134;2023-08-06T04:59:21;20.10;99.90
69747;DHT22;57018;50.278;19.134;2023-08-06T05:01:50;20.30;99.90
69747;DHT22;57018;50.278;19.134;2023-08-06T05:04:20;20.20;99.90
69747;DHT22;57018;50.278;19.134;2023-08-06T05:06:50;20.20;99.90
69747;DHT22;57018;50.278;19.134;2023-08-06T05:09:20;20.20;99.90
69747;DHT22;57018;50.278;19.134;2023-08-06T05:11:50;20.30;99.90
69747;DHT22;57018;50.278;19.134;2023-08-06T05:14:20;20.30;99.90
69747;DHT22;57018;50.278;19.134;2023-08-06T05:16:48;20.20;99.90
69747;DHT22;57018;50.278;19.134;2023-08-06T05:19:18;20.40;99.90
69747;DHT22;57018;50.278;19.134;2023-08-06T05:21:48;20.30;99.90
69747;DHT22;57018;50.278;19.134;2023-08-06T05:24:18;20.40;99.90
69747;DHT22;57018;50.278;19.134;2023-08-06T05:26:48;20.30;99.90
69747;DHT22;57018;50.278;19.134;2023-08-06T05:29:18;20.30;99.90
69747;DHT22;57018;50.278;19.134;2023-08-06T05:31:48;20.40;99.90
69747;DHT22;57018;50.278;19.134;2023-08-06T05:34:17;20.40;99.90
69747;DHT22;57018;50.278;19.134;2023-08-06T05:36:47;20.40;99.90
69747;DHT22;57018;50.278;19.134;2023-08-06T05:39:17;20.40;99.90
69747;DHT22;57018;50.278;19.134;2023-08-06T05:41:47;20.30;99.90
69747;DHT22;57018;50.278;19.134;2023-08-06T05:44:17;20.30;99.90
69747;DHT22;57018;50.278;19.134;2023-08-06T05:46:49;20.30;99.90
69747;DHT22;57018;50.278;19.134;2023-08-06T05:49:19;20.40;99.90
69747;DHT22;57018;50.278;19.134;2023-08-06T05:51:49;20.40;99.90
69747;DHT22;57018;50.278;19.134;2023-08-06T05:54:21;20.40;99.90
69747;DHT22;57018;50.278;19.134;2023-08-06T05:56:51;20.30;99.90
69747;DHT22;57018;50.278;19.134;2023-08-06T05:59:21;20.40;99.90
69747;DHT22;57018;50.278;19.134;2023-08-06T06:01:51;20.40;99.90
69747;DHT22;57018;50.278;19.134;2023-08-06T06:04:21;20.40;99.90
69747;DHT22;57018;50.278;19.134;2023-08-06T06:06:50;20.40;99.90
69747;DHT22;57018;50.278;19.134;2023-08-06T06:09:20;20.30;99.90
69747;DHT22;57018;50.278;19.134;2023-08-06T06:11:50;20.30;99.90
69747;DHT22;57018;50.278;19.134;2023-08-06T06:14:20;20.30;99.90
69747;DHT22;57018;50.278;19.134;2023-08-06T06:16:50;20.30;99.90
69747;DHT22;57018;50.278;19.134;2023-08-06T06:19:27;20.20;99.90
69747;DHT22;57018;50.278;19.134;2023-08-06T06:21:58;20.20;99.90
69747;DHT22;57018;50.278;19.134;2023-08-06T06:24:28;20.10;99.90
69747;DHT22;57018;50.278;19.134;2023-08-06T06:26:58;20.00;99.90
69747;DHT22;57018;50.278;19.134;2023-08-06T06:29:28;20.00;99.90
69747;DHT22;57018;50.278;19.134;2023-08-06T06:31:59;19.80;99.90
69747;DHT22;57018;50.278;19.134;2023-08-06T06:34:29;19.70;99.90
69747;DHT22;57018;50.278;19.134;2023-08-06T06:36:59;19.40;99.90
69747;DHT22;57018;50.278;19.134;2023-08-06T06:39:33;19.30;99.90
69747;DHT22;57018;50.278;19.134;2023-08-06T06:42:03;19.30;99.90
69747;DHT22;57018;50.278;19.134;2023-08-06T06:44:33;19.10;99.90
69747;DHT22;57018;50.278;19.134;2023-08-06T06:47:03;19.00;99.90
69747;DHT22;57018;50.278;19.134;2023-08-06T06:49:33;18.90;99.90
69747;DHT22;57018;50.278;19.134;2023-08-06T06:52:03;18.80;99.90
69747;DHT22;57018;50.278;19.134;2023-08-06T06:54:33;18.50;99.90
69747;DHT22;57018;50.278;19.134;2023-08-06T06:57:04;18.40;99.90
69747;DHT22;57018;50.278;19.134;2023-08-06T06:59:34;18.20;99.90
69747;DHT22;57018;50.278;19.134;2023-08-06T07:02:08;17.90;99.90
69747;DHT22;57018;50.278;19.134;2023-08-06T07:04:39;17.80;99.90
69747;DHT22;57018;50.278;19.134;2023-08-06T07:07:08;17.80;99.90
69747;DHT22;57018;50.278;19.134;2023-08-06T07:09:39;17.70;99.90
69747;DHT22;57018;50.278;19.134;2023-08-06T07:12:09;17.60;99.90
69747;DHT22;57018;50.278;19.134;2023-08-06T07:14:39;17.50;99.90
69747;DHT22;57018;50.278;19.134;2023-08-06T07:17:12;17.40;99.90
69747;DHT22;57018;50.278;19.134;2023-08-06T07:19:42;17.40;99.90
69747;DHT22;57018;50.278;19.134;2023-08-06T07:22:11;17.30;99.90
69747;DHT22;57018;50.278;19.134;2023-08-06T07:24:41;17.40;99.90
69747;DHT22;57018;50.278;19.134;2023-08-06T07:27:11;17.50;99.90
69747;DHT22;57018;50.278;19.134;2023-08-06T07:29:41;17.40;99.90
69747;DHT22;57018;50.278;19.134;2023-08-06T07:32:11;17.40;99.90
69747;DHT22;57018;50.278;19.134;2023-08-06T07:34:41;17.40;99.90
69747;DHT22;57018;50.278;19.134;2023-08-06T07:37:11;17.30;99.90
69747;DHT22;57018;50.278;19.134;2023-08-06T07:39:41;17.30;99.90
69747;DHT22;57018;50.278;19.134;2023-08-06T07:42:14;17.10;99.90
69747;DHT22;57018;50.278;19.134;2023-08-06T07:44:46;17.10;99.90
69747;DHT22;57018;50.278;19.134;2023-08-06T07:47:19;17.00;99.90
69747;DHT22;57018;50.278;19.134;2023-08-06T07:49:49;17.00;99.90
69747;DHT22;57018;50.278;19.134;2023-08-06T07:52:19;16.90;99.90
69747;DHT22;57018;50.278;19.134;2023-08-06T07:54:49;16.90;99.90
69747;DHT22;57018;50.278;19.134;2023-08-06T07:57:19;16.70;99.90
69747;DHT22;57018;50.278;19.134;2023-08-06T07:59:49;16.70;99.90
69747;DHT22;57018;50.278;19.134;2023-08-06T08:02:18;16.60;99.90
69747;DHT22;57018;50.278;19.134;2023-08-06T08:04:48;16.50;99.90
69747;DHT22;57018;50.278;19.134;2023-08-06T08:07:18;16.40;99.90
69747;DHT22;57018;50.278;19.134;2023-08-06T08:09:49;16.30;99.90
69747;DHT22;57018;50.278;19.134;2023-08-06T08:12:19;16.20;99.90
69747;DHT22;57018;50.278;19.134;2023-08-06T08:14:48;16.20;99.90
69747;DHT22;57018;50.278;19.134;2023-08-06T08:17:18;16.30;99.90
69747;DHT22;57018;50.278;19.134;2023-08-06T08:19:48;16.30;99.90
69747;DHT22;57018;50.278;19.134;2023-08-06T08:22:18;16.50;99.90
69747;DHT22;57018;50.278;19.134;2023-08-06T08:24:48;16.70;99.90
69747;DHT22;57018;50.278;19.134;2023-08-06T08:27:17;16.90;99.90
69747;DHT22;57018;50.278;19.134;2023-08-06T08:29:47;17.10;99.90
69747;DHT22;57018;50.278;19.134;2023-08-06T08:32:17;17.30;99.90
69747;DHT22;57018;50.278;19.134;2023-08-06T08:34:47;17.40;99.90
69747;DHT22;57018;50.278;19.134;2023-08-06T08:37:17;17.50;99.90
69747;DHT22;57018;50.278;19.134;2023-08-06T08:39:49;17.50;99.90
69747;DHT22;57018;50.278;19.134;2023-08-06T08:42:21;17.50;99.90
69747;DHT22;57018;50.278;19.134;2023-08-06T08:44:53;17.60;99.90
69747;DHT22;57018;50.278;19.134;2023-08-06T08:47:24;17.50;99.90
69747;DHT22;57018;50.278;19.134;2023-08-06T08:49:55;17.60;99.90
69747;DHT22;57018;50.278;19.134;2023-08-06T08:52:26;17.60;99.90
69747;DHT22;57018;50.278;19.134;2023-08-06T08:54:59;17.70;99.90
69747;DHT22;57018;50.278;19.134;2023-08-06T08:57:30;17.80;99.90
69747;DHT22;57018;50.278;19.134;2023-08-06T09:00:00;17.90;99.90
69747;DHT22;57018;50.278;19.134;2023-08-06T09:02:32;17.80;99.90
69747;DHT22;57018;50.278;19.134;2023-08-06T09:05:05;17.90;99.90
69747;DHT22;57018;50.278;19.134;2023-08-06T09:07:38;17.80;99.90
69747;DHT22;57018;50.278;19.134;2023-08-06T09:10:12;17.90;99.90
69747;DHT22;57018;50.278;19.134;2023-08-06T09:12:45;18.00;99.90
69747;DHT22;57018;50.278;19.134;2023-08-06T09:15:15;18.00;99.90
69747;DHT22;57018;50.278;19.134;2023-08-06T09:17:45;17.80;99.90
69747;DHT22;57018;50.278;19.134;2023-08-06T09:20:16;17.50;99.90
69747;DHT22;57018;50.278;19.134;2023-08-06T09:22:46;17.30;99.90
69747;DHT22;57018;50.278;19.134;2023-08-06T09:25:22;17.20;99.90
69747;DHT22;57018;50.278;19.134;2023-08-06T09:27:53;17.30;99.90
69747;DHT22;57018;50.278;19.134;2023-08-06T09:30:35;17.20;99.90
69747;DHT22;57018;50.278;19.134;2023-08-06T09:33:09;17.20;99.90
69747;DHT22;57018;50.278;19.134;2023-08-06T09:35:40;17.20;99.90
69747;DHT22;57018;50.278;19.134;2023-08-06T09:38:11;17.30;99.90
69747;DHT22;57018;50.278;19.134;2023-08-06T09:40:41;17.40;99.90
69747;DHT22;57018;50.278;19.134;2023-08-06T09:43:13;17.40;99.90
69747;DHT22;57018;50.278;19.134;2023-08-06T09:45:43;17.40;99.90
69747;DHT22;57018;50.278;19.134;2023-08-06T09:48:15;17.30;99.90
69747;DHT22;57018;50.278;19.134;2023-08-06T09:50:45;17.20;99.90
69747;DHT22;57018;50.278;19.134;2023-08-06T09:53:17;17.30;99.90
69747;DHT22;57018;50.278;19.134;2023-08-06T09:55:48;17.20;99.90
69747;DHT22;57018;50.278;19.134;2023-08-06T09:58:18;17.20;99.90
69747;DHT22;57018;50.278;19.134;2023-08-06T10:00:50;17.20;99.90
69747;DHT22;57018;50.278;19.134;2023-08-06T10:03:21;17.20;99.90
69747;DHT22;57018;50.278;19.134;2023-08-06T10:05:54;17.30;99.90
69747;DHT22;57018;50.278;19.134;2023-08-06T10:08:30;17.40;99.90
69747;DHT22;57018;50.278;19.134;2023-08-06T10:11:00;17.40;99.90
69747;DHT22;57018;50.278;19.134;2023-08-06T10:13:34;17.50;99.90
69747;DHT22;57018;50.278;19.134;2023-08-06T10:16:05;17.60;99.90
69747;DHT22;57018;50.278;19.134;2023-08-06T10:18:38;17.60;99.90
69747;DHT22;57018;50.278;19.134;2023-08-06T10:21:10;17.80;99.90
69747;DHT22;57018;50.278;19.134;2023-08-06T10:23:43;17.80;99.90
69747;DHT22;57018;50.278;19.134;2023-08-06T10:26:13;17.80;99.90
69747;DHT22;57018;50.278;19.134;2023-08-06T10:28:46;17.80;99.90
69747;DHT22;57018;50.278;19.134;2023-08-06T10:31:15;17.80;99.90
69747;DHT22;57018;50.278;19.134;2023-08-06T10:33:46;17.90;99.90
69747;DHT22;57018;50.278;19.134;2023-08-06T10:36:17;17.80;99.90
69747;DHT22;57018;50.278;19.134;2023-08-06T10:38:48;17.80;99.90
69747;DHT22;57018;50.278;19.134;2023-08-06T10:41:27;17.80;99.90
69747;DHT22;57018;50.278;19.134;2023-08-06T10:44:06;17.80;99.90
69747;DHT22;57018;50.278;19.134;2023-08-06T10:46:38;17.90;99.90
69747;DHT22;57018;50.278;19.134;2023-08-06T10:49:07;17.80;99.90
69747;DHT22;57018;50.278;19.134;2023-08-06T10:51:38;17.60;99.90
69747;DHT22;57018;50.278;19.134;2023-08-06T10:54:08;17.70;99.90
69747;DHT22;57018;50.278;19.134;2023-08-06T10:56:41;17.60;99.90
69747;DHT22;57018;50.278;19.134;2023-08-06T10:59:16;17.70;99.90
69747;DHT22;57018;50.278;19.134;2023-08-06T11:01:47;17.70;99.90
69747;DHT22;57018;50.278;19.134;2023-08-06T11:04:17;17.80;99.90
69747;DHT22;57018;50.278;19.134;2023-08-06T11:06:53;17.90;99.90
69747;DHT22;57018;50.278;19.134;2023-08-06T11:09:23;18.00;99.90
69747;DHT22;57018;50.278;19.134;2023-08-06T11:11:53;18.10;99.90
69747;DHT22;57018;50.278;19.134;2023-08-06T11:14:22;18.10;99.90
69747;DHT22;57018;50.278;19.134;2023-08-06T11:16:52;18.20;99.90
69747;DHT22;57018;50.278;19.134;2023-08-06T11:19:24;18.20;99.90
69747;DHT22;57018;50.278;19.134;2023-08-06T11:21:54;18.20;99.90
69747;DHT22;57018;50.278;19.134;2023-08-06T11:24:25;18.20;99.90
69747;DHT22;57018;50.278;19.134;2023-08-06T11:26:58;18.30;99.90
69747;DHT22;57018;50.278;19.134;2023-08-06T11:29:28;18.30;99.90
69747;DHT22;57018;50.278;19.134;2023-08-06T11:32:06;18.30;99.90
69747;DHT22;57018;50.278;19.134;2023-08-06T11:34:36;18.40;99.90
69747;DHT22;57018;50.278;19.134;2023-08-06T11:37:07;18.30;99.90
69747;DHT22;57018;50.278;19.134;2023-08-06T11:39:44;18.20;99.90
69747;DHT22;57018;50.278;19.134;2023-08-06T11:42:15;18.20;99.90
69747;DHT22;57018;50.278;19.134;2023-08-06T11:44:45;18.20;99.90
69747;DHT22;57018;50.278;19.134;2023-08-06T11:47:17;18.20;99.90
69747;DHT22;57018;50.278;19.134;2023-08-06T11:49:48;18.30;99.90
69747;DHT22;57018;50.278;19.134;2023-08-06T11:52:20;18.30;99.90
69747;DHT22;57018;50.278;19.134;2023-08-06T11:55:03;18.30;99.90
69747;DHT22;57018;50.278;19.134;2023-08-06T11:57:35;18.30;99.90
69747;DHT22;57018;50.278;19.134;2023-08-06T12:00:11;18.40;99.90
69747;DHT22;57018;50.278;19.134;2023-08-06T12:02:42;18.60;99.90
69747;DHT22;57018;50.278;19.134;2023-08-06T12:05:14;18.80;99.90
69747;DHT22;57018;50.278;19.134;2023-08-06T12:07:46;18.80;99.90
69747;DHT22;57018;50.278;19.134;2023-08-06T12:10:17;18.90;99.90
69747;DHT22;57018;50.278;19.134;2023-08-06T12:12:50;18.90;99.90
69747;DHT22;57018;50.278;19.134;2023-08-06T12:15:26;18.80;99.90
69747;DHT22;57018;50.278;19.134;2023-08-06T12:17:58;18.70;99.90
69747;DHT22;57018;50.278;19.134;2023-08-06T12:20:29;18.70;99.90
69747;DHT22;57018;50.278;19.134;2023-08-06T12:22:59;18.80;99.90
69747;DHT22;57018;50.278;19.134;2023-08-06T12:25:29;18.90;99.90
69747;DHT22;57018;50.278;19.134;2023-08-06T12:27:59;18.90;99.90
69747;DHT22;57018;50.278;19.134;2023-08-06T12:30:29;19.10;99.90
69747;DHT22;57018;50.278;19.134;2023-08-06T12:32:59;19.10;99.90
69747;DHT22;57018;50.278;19.134;2023-08-06T12:35:29;19.20;99.90
69747;DHT22;57018;50.278;19.134;2023-08-06T12:37:58;19.20;99.90
69747;DHT22;57018;50.278;19.134;2023-08-06T12:40:28;19.30;99.90
69747;DHT22;57018;50.278;19.134;2023-08-06T12:42:58;19.50;99.90
69747;DHT22;57018;50.278;19.134;2023-08-06T12:45:28;19.60;99.90
69747;DHT22;57018;50.278;19.134;2023-08-06T12:47:58;19.80;99.90
69747;DHT22;57018;50.278;19.134;2023-08-06T12:50:28;19.80;99.90
69747;DHT22;57018;50.278;19.134;2023-08-06T12:52:58;19.90;99.90
69747;DHT22;57018;50.278;19.134;2023-08-06T12:55:28;19.90;99.90
69747;DHT22;57018;50.278;19.134;2023-08-06T12:57:57;19.80;99.90
69747;DHT22;57018;50.278;19.134;2023-08-06T13:00:30;19.70;99.90
69747;DHT22;57018;50.278;19.134;2023-08-06T13:03:01;19.90;99.90
69747;DHT22;57018;50.278;19.134;2023-08-06T13:05:31;20.00;99.90
69747;DHT22;57018;50.278;19.134;2023-08-06T13:08:01;20.20;99.90
69747;DHT22;57018;50.278;19.134;2023-08-06T13:10:31;20.50;99.90
69747;DHT22;57018;50.278;19.134;2023-08-06T13:13:02;20.60;99.90
69747;DHT22;57018;50.278;19.134;2023-08-06T13:15:32;20.90;99.90
69747;DHT22;57018;50.278;19.134;2023-08-06T13:18:03;21.10;99.90
69747;DHT22;57018;50.278;19.134;2023-08-06T13:20:33;21.10;99.90
69747;DHT22;57018;50.278;19.134;2023-08-06T13:23:03;21.10;99.90
69747;DHT22;57018;50.278;19.134;2023-08-06T13:25:33;21.20;99.90
69747;DHT22;57018;50.278;19.134;2023-08-06T13:28:05;21.50;99.90
69747;DHT22;57018;50.278;19.134;2023-08-06T13:30:35;21.70;99.90
69747;DHT22;57018;50.278;19.134;2023-08-06T13:33:10;22.00;99.90
69747;DHT22;57018;50.278;19.134;2023-08-06T13:35:40;22.10;99.90
69747;DHT22;57018;50.278;19.134;2023-08-06T13:38:10;22.00;99.90
69747;DHT22;57018;50.278;19.134;2023-08-06T13:40:40;21.90;99.90
69747;DHT22;57018;50.278;19.134;2023-08-06T13:43:12;21.80;99.90
69747;DHT22;57018;50.278;19.134;2023-08-06T13:45:44;21.90;99.90
69747;DHT22;57018;50.278;19.134;2023-08-06T13:48:14;22.00;99.90
69747;DHT22;57018;50.278;19.134;2023-08-06T13:50:46;22.10;99.90
69747;DHT22;57018;50.278;19.134;2023-08-06T13:53:16;22.10;99.90
69747;DHT22;57018;50.278;19.134;2023-08-06T13:55:47;22.20;99.90
69747;DHT22;57018;50.278;19.134;2023-08-06T13:58:17;22.40;99.90
69747;DHT22;57018;50.278;19.134;2023-08-06T14:00:49;22.50;99.90
69747;DHT22;57018;50.278;19.134;2023-08-06T14:03:21;22.20;99.90
69747;DHT22;57018;50.278;19.134;2023-08-06T14:05:54;22.00;99.90
69747;DHT22;57018;50.278;19.134;2023-08-06T14:08:25;22.20;99.90
69747;DHT22;57018;50.278;19.134;2023-08-06T14:10:55;22.50;99.90
69747;DHT22;57018;50.278;19.134;2023-08-06T14:13:25;22.80;99.90
69747;DHT22;57018;50.278;19.134;2023-08-06T14:15:55;22.90;99.90
69747;DHT22;57018;50.278;19.134;2023-08-06T14:18:24;23.10;99.90
69747;DHT22;57018;50.278;19.134;2023-08-06T14:20:54;22.90;99.90
69747;DHT22;57018;50.278;19.134;2023-08-06T14:23:24;22.60;99.90
69747;DHT22;57018;50.278;19.134;2023-08-06T14:25:54;22.50;99.90
69747;DHT22;57018;50.278;19.134;2023-08-06T14:28:24;22.10;99.90
69747;DHT22;57018;50.278;19.134;2023-08-06T14:30:56;21.70;99.90
69747;DHT22;57018;50.278;19.134;2023-08-06T14:33:26;21.50;99.90
69747;DHT22;57018;50.278;19.134;2023-08-06T14:35:59;21.30;99.90
69747;DHT22;57018;50.278;19.134;2023-08-06T14:38:28;21.10;99.90
69747;DHT22;57018;50.278;19.134;2023-08-06T14:40:57;20.90;99.90
69747;DHT22;57018;50.278;19.134;2023-08-06T14:43:27;20.90;99.90
69747;DHT22;57018;50.278;19.134;2023-08-06T14:45:57;20.80;99.90
69747;DHT22;57018;50.278;19.134;2023-08-06T14:48:27;20.50;99.90
69747;DHT22;57018;50.278;19.134;2023-08-06T14:50:57;20.40;99.90
69747;DHT22;57018;50.278;19.134;2023-08-06T14:53:27;20.30;99.90
69747;DHT22;57018;50.278;19.134;2023-08-06T14:55:59;20.30;99.90
69747;DHT22;57018;50.278;19.134;2023-08-06T14:58:29;20.30;99.90
69747;DHT22;57018;50.278;19.134;2023-08-06T15:00:59;20.60;99.90
69747;DHT22;57018;50.278;19.134;2023-08-06T15:03:28;20.70;99.90
69747;DHT22;57018;50.278;19.134;2023-08-06T15:06:02;20.70;99.90
69747;DHT22;57018;50.278;19.134;2023-08-06T15:08:32;20.50;99.90
69747;DHT22;57018;50.278;19.134;2023-08-06T15:11:02;20.20;99.90
69747;DHT22;57018;50.278;19.134;2023-08-06T15:13:32;19.90;99.90
69747;DHT22;57018;50.278;19.134;2023-08-06T15:16:02;19.60;99.90
69747;DHT22;57018;50.278;19.134;2023-08-06T15:18:32;19.50;99.90
69747;DHT22;57018;50.278;19.134;2023-08-06T15:21:02;19.50;99.90
69747;DHT22;57018;50.278;19.134;2023-08-06T15:23:32;19.70;99.90
69747;DHT22;57018;50.278;19.134;2023-08-06T15:26:01;19.80;99.90
69747;DHT22;57018;50.278;19.134;2023-08-06T15:28:34;19.90;99.90
69747;DHT22;57018;50.278;19.134;2023-08-06T15:31:04;20.00;99.90
69747;DHT22;57018;50.278;19.134;2023-08-06T15:33:38;20.00;99.90
69747;DHT22;57018;50.278;19.134;2023-08-06T15:36:08;19.80;99.90